sensor_id;sensor_type;location;lat;lon;timestamp;pressure;altitude;pressure_sealevel;temperature;humidity
15634;BME280;14654;48.898;8.308;2023-02-12T00:01:12;102351.13;;;5.73;100.00
15634;BME280;14654;48.898;8.308;2023-02-12T00:03:37;102357.00;;;5.70;100.00
15634;BME280;14654;48.898;8.308;2023-02-12T00:06:03;102351.75;;;5.67;100.00
15634;BME280;14654;48.898;8.308;2023-02-12T00:08:29;102348.34;;;5.68;100.00
15634;BME280;14654;48.898;8.308;2023-02-12T00:10:54;102348.34;;;5.68;100.00
15634;BME280;14654;48.898;8.308;2023-02-12T00:13:20;102349.28;;;5.70;100.00
15634;BME280;14654;48.898;8.308;2023-02-12T00:15:45;102348.47;;;5.71;100.00
15634;BME280;14654;48.898;8.308;2023-02-12T00:18:10;102348.47;;;5.71;100.00
15634;BME280;14654;48.898;8.308;2023-02-12T00:20:37;102340.78;;;5.71;100.00
15634;BME280;14654;48.898;8.308;2023-02-12T00:23:03;102347.53;;;5.69;100.00
15634;BME280;14654;48.898;8.308;2023-02-12T00:25:28;102349.09;;;5.65;100.00
15634;BME280;14654;48.898;8.308;2023-02-12T00:27:53;102343.81;;;5.62;100.00
15634;BME280;14654;48.898;8.308;2023-02-12T00:30:19;102351.41;;;5.59;100.00
15634;BME280;14654;48.898;8.308;2023-02-12T00:32:45;102347.88;;;5.57;100.00
15634;BME280;14654;48.898;8.308;2023-02-12T00:35:11;102343.63;;;5.58;100.00
15634;BME280;14654;48.898;8.308;2023-02-12T00:37:36;102356.53;;;5.59;100.00
15634;BME280;14654;48.898;8.308;2023-02-12T00:40:01;102359.16;;;5.61;100.00
15634;BME280;14654;48.898;8.308;2023-02-12T00:42:27;102354.84;;;5.60;100.00
15634;BME280;14654;48.898;8.308;2023-02-12T00:44:52;102354.63;;;5.55;100.00
15634;BME280;14654;48.898;8.308;2023-02-12T00:47:17;102351.97;;;5.54;100.00
15634;BME280;14654;48.898;8.308;2023-02-12T00:49:43;102351.13;;;5.53;100.00
15634;BME280;14654;48.898;8.308;2023-02-12T00:52:08;102352.78;;;5.53;100.00
15634;BME280;14654;48.898;8.308;2023-02-12T00:54:33;102357.06;;;5.52;100.00
15634;BME280;14654;48.898;8.308;2023-02-12T00:56:59;102364.75;;;5.52;100.00
15634;BME280;14654;48.898;8.308;2023-02-12T00:59:25;102363.97;;;5.53;100.00
15634;BME280;14654;48.898;8.308;2023-02-12T01:01:51;102365.63;;;5.53;100.00
15634;BME280;14654;48.898;8.308;2023-02-12T01:04:17;102362.19;;;5.52;100.00
15634;BME280;14654;48.898;8.308;2023-02-12T01:06:43;102365.56;;;5.51;100.00
15634;BME280;14654;48.898;8.308;2023-02-12T01:09:09;102359.47;;;5.49;100.00
15634;BME280;14654;48.898;8.308;2023-02-12T01:11:34;102360.38;;;5.49;100.00
15634;BME280;14654;48.898;8.308;2023-02-12T01:14:00;102366.31;;;5.48;100.00
15634;BME280;14654;48.898;8.308;2023-02-12T01:16:26;102362.06;;;5.49;100.00
15634;BME280;14654;48.898;8.308;2023-02-12T01:18:53;102364.63;;;5.49;100.00
15634;BME280;14654;48.898;8.308;2023-02-12T01:21:22;102361.09;;;5.47;100.00
15634;BME280;14654;48.898;8.308;2023-02-12T01:23:48;102361.09;;;5.47;100.00
15634;BME280;14654;48.898;8.308;2023-02-12T01:26:15;102362.81;;;5.46;100.00
15634;BME280;14654;48.898;8.308;2023-02-12T01:28:42;102365.28;;;5.45;100.00
15634;BME280;14654;48.898;8.308;2023-02-12T01:31:10;102369.41;;;5.41;100.00
15634;BME280;14654;48.898;8.308;2023-02-12T01:33:35;102379.63;;;5.40;100.00
15634;BME280;14654;48.898;8.308;2023-02-12T01:36:01;102370.91;;;5.36;100.00
15634;BME280;14654;48.898;8.308;2023-02-12T01:38:26;102369.25;;;5.38;100.00
15634;BME280;14654;48.898;8.308;2023-02-12T01:40:51;102367.59;;;5.39;100.00
15634;BME280;14654;48.898;8.308;2023-02-12T01:43:17;102372.78;;;5.40;100.00
15634;BME280;14654;48.898;8.308;2023-02-12T01:45:48;102377.09;;;5.41;100.00
15634;BME280;14654;48.898;8.308;2023-02-12T01:48:17;102369.34;;;5.40;100.00
15634;BME280;14654;48.898;8.308;2023-02-12T01:50:45;102364.94;;;5.37;100.00
15634;BME280;14654;48.898;8.308;2023-02-12T01:53:13;102363.13;;;5.34;100.00
15634;BME280;14654;48.898;8.308;2023-02-12T01:55:44;102359.75;;;5.36;100.00
15634;BME280;14654;48.898;8.308;2023-02-12T01:58:10;102359.78;;;5.37;100.00
15634;BME280;14654;48.898;8.308;2023-02-12T02:00:35;102362.44;;;5.39;100.00
15634;BME280;14654;48.898;8.308;2023-02-12T02:03:01;102353.03;;;5.39;100.00
15634;BME280;14654;48.898;8.308;2023-02-12T02:05:34;102354.00;;;5.41;100.00
15634;BME280;14654;48.898;8.308;2023-02-12T02:08:03;102356.66;;;5.43;100.00
15634;BME280;14654;48.898;8.308;2023-02-12T02:10:29;102351.53;;;5.43;100.00
15634;BME280;14654;48.898;8.308;2023-02-12T02:12:55;102355.84;;;5.44;100.00
15634;BME280;14654;48.898;8.308;2023-02-12T02:15:41;102356.78;;;5.46;100.00
15634;BME280;14654;48.898;8.308;2023-02-12T02:18:13;102349.88;;;5.45;100.00
15634;BME280;14654;48.898;8.308;2023-02-12T02:37:00;102336.03;;;5.41;100.00
15634;BME280;14654;48.898;8.308;2023-02-12T02:39:36;102331.78;;;5.42;100.00
15634;BME280;14654;48.898;8.308;2023-02-12T02:44:57;102334.34;;;5.42;100.00
15634;BME280;14654;48.898;8.308;2023-02-12T02:47:31;102329.28;;;5.43;100.00
15634;BME280;14654;48.898;8.308;2023-02-12T02:50:04;102325.09;;;5.45;100.00
15634;BME280;14654;48.898;8.308;2023-02-12T02:52:37;102320.75;;;5.44;100.00
15634;BME280;14654;48.898;8.308;2023-02-12T02:55:06;102327.59;;;5.44;100.00
15634;BME280;14654;48.898;8.308;2023-02-12T02:57:49;102330.88;;;5.41;100.00
15634;BME280;14654;48.898;8.308;2023-02-12T03:00:17;102326.41;;;5.37;100.00
15634;BME280;14654;48.898;8.308;2023-02-12T03:02:51;102322.03;;;5.34;100.00
15634;BME280;14654;48.898;8.308;2023-02-12T03:05:25;102315.00;;;5.30;100.00
15634;BME280;14654;48.898;8.308;2023-02-12T03:08:11;102317.34;;;5.26;100.00
15634;BME280;14654;48.898;8.308;2023-02-12T03:10:47;102319.66;;;5.19;100.00
15634;BME280;14654;48.898;8.308;2023-02-12T03:13:23;102321.28;;;5.17;100.00
15634;BME280;14654;48.898;8.308;2023-02-12T03:16:04;102318.63;;;5.16;100.00
15634;BME280;14654;48.898;8.308;2023-02-12T03:18:59;102318.72;;;5.17;100.00
15634;BME280;14654;48.898;8.308;2023-02-12T03:21:40;102318.72;;;5.17;100.00
15634;BME280;14654;48.898;8.308;2023-02-12T03:24:15;102322.22;;;5.19;100.00
15634;BME280;14654;48.898;8.308;2023-02-12T03:26:50;102325.75;;;5.22;100.00
15634;BME280;14654;48.898;8.308;2023-02-12T03:29:18;102322.34;;;5.23;100.00
15634;BME280;14654;48.898;8.308;2023-02-12T03:37:23;102326.00;;;5.28;100.00
15634;BME280;14654;48.898;8.308;2023-02-12T03:40:34;102326.91;;;5.28;100.00
15634;BME280;14654;48.898;8.308;2023-02-12T03:43:24;102326.09;;;5.29;100.00
15634;BME280;14654;48.898;8.308;2023-02-12T03:48:27;102327.91;;;5.32;100.00
15634;BME280;14654;48.898;8.308;2023-02-12T03:53:37;102333.91;;;5.32;100.00
15634;BME280;14654;48.898;8.308;2023-02-12T03:56:07;102328.06;;;5.35;100.00
15634;BME280;14654;48.898;8.308;2023-02-12T03:58:35;102336.63;;;5.36;100.00
15634;BME280;14654;48.898;8.308;2023-02-12T04:01:02;102335.88;;;5.38;100.00
15634;BME280;14654;48.898;8.308;2023-02-12T04:03:29;102326.50;;;5.39;100.00
15634;BME280;14654;48.898;8.308;2023-02-12T04:05:55;102333.31;;;5.38;100.00
15634;BME280;14654;48.898;8.308;2023-02-12T04:08:20;102336.78;;;5.39;100.00
15634;BME280;14654;48.898;8.308;2023-02-12T04:13:24;102329.81;;;5.36;100.00
15634;BME280;14654;48.898;8.308;2023-02-12T04:16:11;102328.97;;;5.37;100.00
15634;BME280;14654;48.898;8.308;2023-02-12T04:18:43;102333.25;;;5.37;100.00
15634;BME280;14654;48.898;8.308;2023-02-12T04:21:15;102339.25;;;5.37;100.00
15634;BME280;14654;48.898;8.308;2023-02-12T04:27:01;102332.38;;;5.36;100.00
15634;BME280;14654;48.898;8.308;2023-02-12T04:30:02;102339.13;;;5.34;100.00
15634;BME280;14654;48.898;8.308;2023-02-12T04:32:41;102334.88;;;5.34;100.00
15634;BME280;14654;48.898;8.308;2023-02-12T04:37:44;102337.38;;;5.33;100.00
15634;BME280;14654;48.898;8.308;2023-02-12T04:40:13;102347.56;;;5.31;100.00
15634;BME280;14654;48.898;8.308;2023-02-12T04:42:43;102345.00;;;5.31;100.00
15634;BME280;14654;48.898;8.308;2023-02-12T04:45:14;102345.88;;;5.32;100.00
15634;BME280;14654;48.898;8.308;2023-02-12T04:47:40;102343.16;;;5.29;100.00
15634;BME280;14654;48.898;8.308;2023-02-12T04:50:06;102351.81;;;5.31;100.00
15634;BME280;14654;48.898;8.308;2023-02-12T04:52:31;102357.81;;;5.31;100.00
15634;BME280;14654;48.898;8.308;2023-02-12T04:54:56;102363.06;;;5.33;100.00
15634;BME280;14654;48.898;8.308;2023-02-12T04:57:22;102358.88;;;5.35;100.00
15634;BME280;14654;48.898;8.308;2023-02-12T04:59:47;102355.56;;;5.38;100.00
15634;BME280;14654;48.898;8.308;2023-02-12T05:02:12;102356.56;;;5.41;100.00
15634;BME280;14654;48.898;8.308;2023-02-12T05:04:38;102356.56;;;5.41;100.00
15634;BME280;14654;48.898;8.308;2023-02-12T05:07:03;102355.69;;;5.41;100.00
15634;BME280;14654;48.898;8.308;2023-02-12T05:09:28;102353.94;;;5.40;100.00
15634;BME280;14654;48.898;8.308;2023-02-12T05:11:54;102346.16;;;5.38;100.00
15634;BME280;14654;48.898;8.308;2023-02-12T05:14:19;102349.63;;;5.39;100.00
15634;BME280;14654;48.898;8.308;2023-02-12T05:16:44;102350.41;;;5.38;100.00
15634;BME280;14654;48.898;8.308;2023-02-12T05:19:10;102351.22;;;5.37;100.00
15634;BME280;14654;48.898;8.308;2023-02-12T05:21:37;102358.06;;;5.36;100.00
15634;BME280;14654;48.898;8.308;2023-02-12T05:24:02;102350.28;;;5.34;100.00
15634;BME280;14654;48.898;8.308;2023-02-12T05:26:28;102352.09;;;5.37;100.00
15634;BME280;14654;48.898;8.308;2023-02-12T05:28:53;102363.13;;;5.34;100.00
15634;BME280;14654;48.898;8.308;2023-02-12T05:31:19;102357.13;;;5.34;100.00
15634;BME280;14654;48.898;8.308;2023-02-12T05:33:47;102356.31;;;5.35;100.00
15634;BME280;14654;48.898;8.308;2023-02-12T05:36:18;102352.84;;;5.34;100.00
15634;BME280;14654;48.898;8.308;2023-02-12T05:38:44;102343.47;;;5.35;100.00
15634;BME280;14654;48.898;8.308;2023-02-12T05:41:16;102356.31;;;5.35;100.00
15634;BME280;14654;48.898;8.308;2023-02-12T05:43:42;102346.03;;;5.35;100.00
15634;BME280;14654;48.898;8.308;2023-02-12T05:46:08;102351.28;;;5.38;100.00
15634;BME280;14654;48.898;8.308;2023-02-12T05:48:34;102341.81;;;5.37;100.00
15634;BME280;14654;48.898;8.308;2023-02-12T05:51:11;102347.09;;;5.40;100.00
15634;BME280;14654;48.898;8.308;2023-02-12T05:53:37;102348.66;;;5.37;100.00
15634;BME280;14654;48.898;8.308;2023-02-12T05:56:17;102355.50;;;5.36;100.00
15634;BME280;14654;48.898;8.308;2023-02-12T05:58:45;102345.22;;;5.36;100.00
15634;BME280;14654;48.898;8.308;2023-02-12T06:01:12;102353.75;;;5.35;100.00
15634;BME280;14654;48.898;8.308;2023-02-12T06:03:38;102344.28;;;5.34;100.00
15634;BME280;14654;48.898;8.308;2023-02-12T06:06:04;102347.66;;;5.33;100.00
15634;BME280;14654;48.898;8.308;2023-02-12T06:08:29;102343.47;;;5.35;100.00
15634;BME280;14654;48.898;8.308;2023-02-12T06:10:59;102346.25;;;5.40;100.00
15634;BME280;14654;48.898;8.308;2023-02-12T06:13:24;102344.63;;;5.42;100.00
15634;BME280;14654;48.898;8.308;2023-02-12T06:15:49;102346.44;;;5.44;100.00
15634;BME280;14654;48.898;8.308;2023-02-12T06:18:14;102343.06;;;5.45;100.00
15634;BME280;14654;48.898;8.308;2023-02-12T06:20:40;102337.94;;;5.45;100.00
15634;BME280;14654;48.898;8.308;2023-02-12T06:23:05;102342.25;;;5.46;100.00
15634;BME280;14654;48.898;8.308;2023-02-12T06:25:30;102348.19;;;5.45;100.00
15634;BME280;14654;48.898;8.308;2023-02-12T06:27:56;102346.44;;;5.44;100.00
15634;BME280;14654;48.898;8.308;2023-02-12T06:30:21;102346.44;;;5.44;100.00
15634;BME280;14654;48.898;8.308;2023-02-12T06:32:49;102346.59;;;5.47;100.00
15634;BME280;14654;48.898;8.308;2023-02-12T06:35:15;102342.16;;;5.45;100.00
15634;BME280;14654;48.898;8.308;2023-02-12T06:37:40;102347.25;;;5.43;100.00
15634;BME280;14654;48.898;8.308;2023-02-12T06:40:06;102352.19;;;5.39;100.00
15634;BME280;14654;48.898;8.308;2023-02-12T06:42:31;102353.66;;;5.33;100.00
15634;BME280;14654;48.898;8.308;2023-02-12T06:44:56;102356.16;;;5.32;100.00
15634;BME280;14654;48.898;8.308;2023-02-12T06:47:22;102356.81;;;5.28;100.00
15634;BME280;14654;48.898;8.308;2023-02-12T06:49:47;102354.19;;;5.26;100.00
15634;BME280;14654;48.898;8.308;2023-02-12T06:52:12;102362.59;;;5.24;100.00
15634;BME280;14654;48.898;8.308;2023-02-12T06:54:39;102359.97;;;5.22;100.00
15634;BME280;14654;48.898;8.308;2023-02-12T06:57:04;102353.84;;;5.18;100.00
15634;BME280;14654;48.898;8.308;2023-02-12T06:59:29;102361.59;;;5.20;100.00
15634;BME280;14654;48.898;8.308;2023-02-12T07:01:55;102356.59;;;5.23;100.00
15634;BME280;14654;48.898;8.308;2023-02-12T07:04:20;102359.19;;;5.23;100.00
15634;BME280;14654;48.898;8.308;2023-02-12T07:06:45;102358.38;;;5.24;100.00
15634;BME280;14654;48.898;8.308;2023-02-12T07:09:11;102357.63;;;5.27;100.00
15634;BME280;14654;48.898;8.308;2023-02-12T07:11:36;102355.19;;;5.30;100.00
15634;BME280;14654;48.898;8.308;2023-02-12T07:14:02;102364.06;;;5.37;100.00
15634;BME280;14654;48.898;8.308;2023-02-12T07:16:27;102359.13;;;5.41;100.00
15634;BME280;14654;48.898;8.308;2023-02-12T07:18:53;102360.28;;;5.48;100.00
15634;BME280;14654;48.898;8.308;2023-02-12T07:21:18;102373.28;;;5.51;100.00
15634;BME280;14654;48.898;8.308;2023-02-12T07:23:48;102369.97;;;5.54;100.00
15634;BME280;14654;48.898;8.308;2023-02-12T07:26:14;102373.56;;;5.57;100.00
15634;BME280;14654;48.898;8.308;2023-02-12T07:28:41;102372.00;;;5.61;100.00
15634;BME280;14654;48.898;8.308;2023-02-12T07:31:12;102373.81;;;5.63;100.00
15634;BME280;14654;48.898;8.308;2023-02-12T07:33:38;102374.59;;;5.61;100.00
15634;BME280;14654;48.898;8.308;2023-02-12T07:36:05;102373.63;;;5.59;100.00
15634;BME280;14654;48.898;8.308;2023-02-12T07:38:31;102380.59;;;5.61;100.00
15634;BME280;14654;48.898;8.308;2023-02-12T07:41:14;102376.41;;;5.63;100.00
15634;BME280;14654;48.898;8.308;2023-02-12T07:43:40;102376.47;;;5.65;100.00
15634;BME280;14654;48.898;8.308;2023-02-12T07:46:09;102366.41;;;5.70;100.00
15634;BME280;14654;48.898;8.308;2023-02-12T07:48:35;102370.88;;;5.74;100.00
15634;BME280;14654;48.898;8.308;2023-02-12T07:51:05;102363.38;;;5.78;100.00
15634;BME280;14654;48.898;8.308;2023-02-12T07:53:31;102361.75;;;5.80;100.00
15634;BME280;14654;48.898;8.308;2023-02-12T07:56:25;102359.25;;;5.82;100.00
15634;BME280;14654;48.898;8.308;2023-02-12T07:58:50;102361.94;;;5.85;100.00
15634;BME280;14654;48.898;8.308;2023-02-12T08:01:36;102368.25;;;5.92;100.00
15634;BME280;14654;48.898;8.308;2023-02-12T08:04:05;102353.00;;;5.97;100.00
15634;BME280;14654;48.898;8.308;2023-02-12T08:06:33;102347.28;;;6.02;100.00
15634;BME280;14654;48.898;8.308;2023-02-12T08:09:01;102349.22;;;6.08;100.00
15634;BME280;14654;48.898;8.308;2023-02-12T08:11:28;102348.56;;;6.12;100.00
15634;BME280;14654;48.898;8.308;2023-02-12T08:13:54;102346.25;;;6.18;100.00
15634;BME280;14654;48.898;8.308;2023-02-12T08:16:21;102340.63;;;6.27;100.00
15634;BME280;14654;48.898;8.308;2023-02-12T08:18:48;102344.25;;;6.32;100.00
15634;BME280;14654;48.898;8.308;2023-02-12T08:21:18;102341.88;;;6.37;100.00
15634;BME280;14654;48.898;8.308;2023-02-12T08:23:44;102340.44;;;6.44;100.00
15634;BME280;14654;48.898;8.308;2023-02-12T08:26:38;102335.53;;;6.50;100.00
15634;BME280;14654;48.898;8.308;2023-02-12T08:29:10;102340.25;;;6.60;100.00
15634;BME280;14654;48.898;8.308;2023-02-12T08:31:38;102337.94;;;6.66;100.00
15634;BME280;14654;48.898;8.308;2023-02-12T08:34:05;102343.25;;;6.71;100.00
15634;BME280;14654;48.898;8.308;2023-02-12T08:36:39;102337.56;;;6.78;100.00
15634;BME280;14654;48.898;8.308;2023-02-12T08:39:06;102341.06;;;6.80;100.00
15634;BME280;14654;48.898;8.308;2023-02-12T08:41:32;102342.28;;;6.90;100.00
15634;BME280;14654;48.898;8.308;2023-02-12T08:44:00;102341.72;;;6.97;100.00
15634;BME280;14654;48.898;8.308;2023-02-12T08:46:28;102343.81;;;7.08;100.00
15634;BME280;14654;48.898;8.308;2023-02-12T08:48:56;102339.03;;;7.17;100.00
15634;BME280;14654;48.898;8.308;2023-02-12T08:51:24;102341.00;;;7.24;100.00
15634;BME280;14654;48.898;8.308;2023-02-12T08:53:55;102333.63;;;7.33;100.00
15634;BME280;14654;48.898;8.308;2023-02-12T08:56:22;102344.28;;;7.43;100.00
15634;BME280;14654;48.898;8.308;2023-02-12T08:58:48;102337.63;;;7.48;100.00
15634;BME280;14654;48.898;8.308;2023-02-12T09:01:17;102335.25;;;7.54;100.00
15634;BME280;14654;48.898;8.308;2023-02-12T09:03:43;102339.03;;;7.64;100.00
15634;BME280;14654;48.898;8.308;2023-02-12T09:06:09;102355.31;;;7.63;100.00
15634;BME280;14654;48.898;8.308;2023-02-12T09:08:36;102344.19;;;7.64;100.00
15634;BME280;14654;48.898;8.308;2023-02-12T09:11:06;102346.13;;;7.70;100.00
15634;BME280;14654;48.898;8.308;2023-02-12T09:13:32;102350.44;;;7.71;100.00
15634;BME280;14654;48.898;8.308;2023-02-12T09:15:59;102345.19;;;7.68;100.00
15634;BME280;14654;48.898;8.308;2023-02-12T09:18:26;102354.63;;;7.67;100.00
15634;BME280;14654;48.898;8.308;2023-02-12T09:20:51;102348.78;;;7.71;100.00
15634;BME280;14654;48.898;8.308;2023-02-12T09:23:17;102359.13;;;7.73;100.00
15634;BME280;14654;48.898;8.308;2023-02-12T09:25:43;102349.00;;;7.79;100.00
15634;BME280;14654;48.898;8.308;2023-02-12T09:28:10;102354.41;;;7.85;100.00
15634;BME280;14654;48.898;8.308;2023-02-12T09:30:36;102358.03;;;7.90;100.00
15634;BME280;14654;48.898;8.308;2023-02-12T09:33:02;102359.94;;;7.96;100.00
15634;BME280;14654;48.898;8.308;2023-02-12T09:35:28;102349.00;;;8.03;100.00
15634;BME280;14654;48.898;8.308;2023-02-12T09:37:53;102363.22;;;8.16;100.00
15634;BME280;14654;48.898;8.308;2023-02-12T09:40:30;102353.38;;;8.30;100.00
15634;BME280;14654;48.898;8.308;2023-02-12T09:45:57;102358.16;;;8.71;98.54
15634;BME280;14654;48.898;8.308;2023-02-12T09:48:34;102354.91;;;8.77;97.44
15634;BME280;14654;48.898;8.308;2023-02-12T09:51:05;102361.56;;;8.97;96.69
15634;BME280;14654;48.898;8.308;2023-02-12T09:53:34;102354.13;;;9.07;96.30
15634;BME280;14654;48.898;8.308;2023-02-12T09:56:01;102363.91;;;9.19;95.21
15634;BME280;14654;48.898;8.308;2023-02-12T09:58:37;102369.63;;;9.36;94.64
15634;BME280;14654;48.898;8.308;2023-02-12T10:01:13;102363.03;;;9.47;94.54
15634;BME280;14654;48.898;8.308;2023-02-12T10:03:39;102360.41;;;9.45;93.11
15634;BME280;14654;48.898;8.308;2023-02-12T10:06:13;102364.97;;;9.54;93.82
15634;BME280;14654;48.898;8.308;2023-02-12T10:17:16;102365.78;;;9.84;91.40
15634;BME280;14654;48.898;8.308;2023-02-12T10:28:31;102366.47;;;9.46;92.97
15634;BME280;14654;48.898;8.308;2023-02-12T10:31:28;102355.28;;;9.47;93.55
15634;BME280;14654;48.898;8.308;2023-02-12T10:33:55;102357.06;;;9.48;92.77
15634;BME280;14654;48.898;8.308;2023-02-12T10:36:43;102353.31;;;9.38;92.87
15634;BME280;14654;48.898;8.308;2023-02-12T10:41:40;102347.94;;;9.32;93.24
15634;BME280;14654;48.898;8.308;2023-02-12T10:44:10;102353.13;;;9.32;92.98
15634;BME280;14654;48.898;8.308;2023-02-12T10:46:36;102350.47;;;9.29;92.98
15634;BME280;14654;48.898;8.308;2023-02-12T10:49:01;102344.50;;;9.32;92.68
15634;BME280;14654;48.898;8.308;2023-02-12T10:54:34;102345.66;;;9.41;92.44
15634;BME280;14654;48.898;8.308;2023-02-12T10:57:08;102339.09;;;9.54;92.29
15634;BME280;14654;48.898;8.308;2023-02-12T10:59:35;102343.72;;;9.65;92.12
15634;BME280;14654;48.898;8.308;2023-02-12T11:02:00;102332.56;;;9.66;92.03
15634;BME280;14654;48.898;8.308;2023-02-12T11:04:29;102333.63;;;9.74;91.57
15634;BME280;14654;48.898;8.308;2023-02-12T11:09:34;102330.53;;;9.87;91.00
15634;BME280;14654;48.898;8.308;2023-02-12T11:12:00;102331.03;;;9.74;91.83
15634;BME280;14654;48.898;8.308;2023-02-12T11:14:27;102329.78;;;9.59;91.81
15634;BME280;14654;48.898;8.308;2023-02-12T11:16:57;102318.97;;;9.42;92.99
15634;BME280;14654;48.898;8.308;2023-02-12T11:19:26;102317.97;;;9.37;93.79
15634;BME280;14654;48.898;8.308;2023-02-12T11:22:06;102321.56;;;9.42;93.22
15634;BME280;14654;48.898;8.308;2023-02-12T11:24:35;102315.38;;;9.37;94.25
15634;BME280;14654;48.898;8.308;2023-02-12T11:29:37;102313.88;;;9.45;93.60
15634;BME280;14654;48.898;8.308;2023-02-12T11:32:05;102322.66;;;9.51;93.23
15634;BME280;14654;48.898;8.308;2023-02-12T11:34:33;102312.59;;;9.60;93.33
15634;BME280;14654;48.898;8.308;2023-02-12T11:36:59;102307.66;;;9.69;92.27
15634;BME280;14654;48.898;8.308;2023-02-12T11:39:27;102312.94;;;9.74;92.23
15634;BME280;14654;48.898;8.308;2023-02-12T11:44:23;102300.72;;;10.00;91.22
15634;BME280;14654;48.898;8.308;2023-02-12T11:46:54;102301.66;;;10.04;90.97
15634;BME280;14654;48.898;8.308;2023-02-12T11:49:23;102302.34;;;9.97;91.21
15634;BME280;14654;48.898;8.308;2023-02-12T11:51:49;102300.06;;;10.09;91.08
15634;BME280;14654;48.898;8.308;2023-02-12T11:54:23;102292.88;;;10.32;90.19
15634;BME280;14654;48.898;8.308;2023-02-12T11:56:49;102288.53;;;10.31;89.92
15634;BME280;14654;48.898;8.308;2023-02-12T11:59:37;102288.53;;;9.96;90.76
15634;BME280;14654;48.898;8.308;2023-02-12T12:02:35;102287.91;;;9.73;91.75
15634;BME280;14654;48.898;8.308;2023-02-12T12:05:18;102292.88;;;9.65;93.04
15634;BME280;14654;48.898;8.308;2023-02-12T12:07:49;102288.53;;;9.63;92.33
15634;BME280;14654;48.898;8.308;2023-02-12T12:10:30;102281.47;;;9.57;93.10
15634;BME280;14654;48.898;8.308;2023-02-12T12:13:01;102276.94;;;9.48;92.95
15634;BME280;14654;48.898;8.308;2023-02-12T12:15:35;102283.34;;;9.32;93.94
15634;BME280;14654;48.898;8.308;2023-02-12T12:21:50;102286.41;;;9.19;94.84
15634;BME280;14654;48.898;8.308;2023-02-12T12:24:37;102271.94;;;9.24;93.83
15634;BME280;14654;48.898;8.308;2023-02-12T12:27:19;102272.97;;;9.29;93.81
15634;BME280;14654;48.898;8.308;2023-02-12T12:33:04;102275.66;;;9.34;94.21
15634;BME280;14654;48.898;8.308;2023-02-12T12:35:41;102275.78;;;9.38;93.50
15634;BME280;14654;48.898;8.308;2023-02-12T12:38:36;102270.53;;;9.35;93.79
15634;BME280;14654;48.898;8.308;2023-02-12T12:43:54;102259.53;;;9.42;94.39
15634;BME280;14654;48.898;8.308;2023-02-12T12:46:43;102250.28;;;9.51;93.29
15634;BME280;14654;48.898;8.308;2023-02-12T12:52:19;102244.03;;;9.42;93.44
15634;BME280;14654;48.898;8.308;2023-02-12T12:57:55;102245.41;;;9.61;93.10
15634;BME280;14654;48.898;8.308;2023-02-12T13:00:34;102230.81;;;9.64;93.05
15634;BME280;14654;48.898;8.308;2023-02-12T13:11:27;102216.34;;;9.70;92.89
15634;BME280;14654;48.898;8.308;2023-02-12T13:14:51;102229.41;;;9.76;93.20
15634;BME280;14654;48.898;8.308;2023-02-12T13:17:22;102217.44;;;9.80;92.44
15634;BME280;14654;48.898;8.308;2023-02-12T13:20:07;102225.22;;;9.82;92.20
15634;BME280;14654;48.898;8.308;2023-02-12T13:22:37;102216.63;;;9.81;91.93
15634;BME280;14654;48.898;8.308;2023-02-12T13:25:27;102218.38;;;9.84;92.88
15634;BME280;14654;48.898;8.308;2023-02-12T13:27:58;102202.88;;;9.84;92.67
15634;BME280;14654;48.898;8.308;2023-02-12T13:30:45;102200.94;;;9.76;92.41
15634;BME280;14654;48.898;8.308;2023-02-12T13:33:19;102193.16;;;9.75;92.35
15634;BME280;14654;48.898;8.308;2023-02-12T13:35:48;102190.69;;;9.80;92.74
15634;BME280;14654;48.898;8.308;2023-02-12T13:38:21;102190.63;;;9.76;92.94
15634;BME280;14654;48.898;8.308;2023-02-12T13:40:52;102194.06;;;9.75;92.84
15634;BME280;14654;48.898;8.308;2023-02-12T13:52:03;102186.25;;;9.74;92.85
15634;BME280;14654;48.898;8.308;2023-02-12T13:57:11;102179.44;;;9.77;92.98
15634;BME280;14654;48.898;8.308;2023-02-12T13:59:40;102183.03;;;9.83;93.16
15634;BME280;14654;48.898;8.308;2023-02-12T14:04:44;102180.47;;;9.84;93.22
15634;BME280;14654;48.898;8.308;2023-02-12T14:07:14;102188.22;;;9.84;92.60
15634;BME280;14654;48.898;8.308;2023-02-12T14:09:42;102180.44;;;9.83;92.40
15634;BME280;14654;48.898;8.308;2023-02-12T14:12:15;102178.75;;;9.85;93.13
15634;BME280;14654;48.898;8.308;2023-02-12T14:14:45;102194.22;;;9.83;92.56
15634;BME280;14654;48.898;8.308;2023-02-12T14:37:55;102183.63;;;9.72;93.03
15634;BME280;14654;48.898;8.308;2023-02-12T14:43:00;102178.41;;;9.71;93.35
15634;BME280;14654;48.898;8.308;2023-02-12T14:45:28;102181.81;;;9.70;93.25
15634;BME280;14654;48.898;8.308;2023-02-12T14:47:54;102177.56;;;9.70;93.31
15634;BME280;14654;48.898;8.308;2023-02-12T14:50:30;102172.31;;;9.69;94.45
15634;BME280;14654;48.898;8.308;2023-02-12T14:53:06;102181.78;;;9.67;93.98
15634;BME280;14654;48.898;8.308;2023-02-12T14:55:39;102172.28;;;9.66;94.07
15634;BME280;14654;48.898;8.308;2023-02-12T14:58:16;102161.09;;;9.67;94.36
15634;BME280;14654;48.898;8.308;2023-02-12T15:00:45;102159.28;;;9.64;94.06
15634;BME280;14654;48.898;8.308;2023-02-12T15:05:40;102157.53;;;9.63;94.57
15634;BME280;14654;48.898;8.308;2023-02-12T15:10:45;102164.38;;;9.61;94.19
15634;BME280;14654;48.898;8.308;2023-02-12T15:21:39;102157.31;;;9.54;94.87
15634;BME280;14654;48.898;8.308;2023-02-12T15:26:51;102154.72;;;9.52;95.24
15634;BME280;14654;48.898;8.308;2023-02-12T15:31:52;102158.91;;;9.49;95.42
15634;BME280;14654;48.898;8.308;2023-02-12T15:34:21;102155.44;;;9.48;95.97
15634;BME280;14654;48.898;8.308;2023-02-12T15:36:48;102155.34;;;9.43;96.79
15634;BME280;14654;48.898;8.308;2023-02-12T15:39:17;102161.28;;;9.41;97.02